createdAt,value
2022-09-26T00:01:43.162Z,9.50
2022-09-26T00:04:22.978Z,9.90
2022-09-26T00:06:53.959Z,10.40
2022-09-26T00:09:24.110Z,12.80
2022-09-26T00:11:53.442Z,13.50
2022-09-26T00:14:25.521Z,13.80
2022-09-26T00:16:53.996Z,13.40
2022-09-26T00:19:23.110Z,13.50
2022-09-26T00:21:51.702Z,12.80
2022-09-26T00:24:20.517Z,12.90
2022-09-26T00:26:48.738Z,12.90
2022-09-26T00:29:17.064Z,11.90
2022-09-26T00:31:47.538Z,9.80
2022-09-26T00:34:18.852Z,9.50
2022-09-26T00:36:47.123Z,8.80
2022-09-26T00:39:16.759Z,7.90
2022-09-26T00:41:45.807Z,8.10
2022-09-26T00:44:32.746Z,8.00
2022-09-26T00:47:01.547Z,8.80
2022-09-26T00:49:36.602Z,7.50
2022-09-26T00:52:16.125Z,7.70
2022-09-26T00:54:48.817Z,8.00
2022-09-26T00:57:21.860Z,8.60
2022-09-26T00:59:57.610Z,8.80
2022-09-26T01:02:29.034Z,8.40
2022-09-26T01:04:59.500Z,8.90
2022-09-26T01:07:30.026Z,9.60
2022-09-26T01:09:59.436Z,10.00
2022-09-26T01:12:27.730Z,9.70
2022-09-26T01:14:57.279Z,9.70
2022-09-26T01:17:27.145Z,10.30
2022-09-26T01:20:21.307Z,9.70
2022-09-26T01:23:08.099Z,9.80
2022-09-26T01:26:01.283Z,17.40
2022-09-26T01:28:32.384Z,8.60
2022-09-26T01:31:12.461Z,9.00
2022-09-26T01:33:59.529Z,8.80
2022-09-26T01:36:52.681Z,9.10
2022-09-26T01:39:38.383Z,10.80
2022-09-26T01:42:31.280Z,11.80
2022-09-26T01:45:18.745Z,11.10
2022-09-26T01:48:10.114Z,11.30
2022-09-26T01:50:50.813Z,10.20
2022-09-26T01:53:39.177Z,10.20
2022-09-26T01:56:14.873Z,9.50
2022-09-26T01:58:50.096Z,10.10
2022-09-26T02:01:23.003Z,11.60
2022-09-26T02:03:58.980Z,10.90
2022-09-26T02:06:42.932Z,10.70
2022-09-26T02:09:17.202Z,10.00
2022-09-26T02:11:50.570Z,10.70
2022-09-26T02:14:32.358Z,11.00
2022-09-26T02:17:23.041Z,11.60
2022-09-26T02:20:00.955Z,13.20
2022-09-26T02:22:34.108Z,12.90
2022-09-26T02:25:04.551Z,12.70
2022-09-26T02:27:33.321Z,11.00
2022-09-26T02:30:01.826Z,10.50
2022-09-26T02:32:32.958Z,10.50
2022-09-26T02:35:22.566Z,10.60
2022-09-26T02:37:51.106Z,11.10
2022-09-26T02:40:23.272Z,10.70
2022-09-26T02:43:05.509Z,11.00
2022-09-26T02:46:15.831Z,9.80
2022-09-26T02:49:10.298Z,9.60
2022-09-26T02:52:03.473Z,10.90
2022-09-26T02:54:51.771Z,9.40
2022-09-26T02:57:40.726Z,10.20
2022-09-26T03:00:16.374Z,20.40
2022-09-26T03:03:06.064Z,20.90
2022-09-26T03:05:38.920Z,14.70
2022-09-26T03:08:13.365Z,11.40
2022-09-26T03:10:42.814Z,11.50
2022-09-26T03:13:13.413Z,10.00
2022-09-26T03:15:46.295Z,10.20
2022-09-26T03:18:22.773Z,10.30
2022-09-26T03:20:54.381Z,16.40
2022-09-26T03:23:25.614Z,11.00
2022-09-26T03:26:14.030Z,12.40
2022-09-26T03:28:52.195Z,13.90
2022-09-26T03:31:25.596Z,14.70
2022-09-26T03:34:01.146Z,14.30
2022-09-26T03:36:30.367Z,27.10
2022-09-26T03:38:58.582Z,29.20
2022-09-26T03:41:45.607Z,27.30
2022-09-26T03:44:21.799Z,50.70
2022-09-26T03:47:05.160Z,43.60
2022-09-26T03:49:37.016Z,37.90
2022-09-26T03:52:07.488Z,28.90
2022-09-26T03:54:35.711Z,27.20
2022-09-26T03:57:04.484Z,22.80
2022-09-26T03:59:34.293Z,24.70
2022-09-26T04:02:02.883Z,25.10
2022-09-26T04:04:32.411Z,23.40
2022-09-26T04:07:00.553Z,19.80
2022-09-26T04:09:28.958Z,17.00
2022-09-26T04:11:57.239Z,18.50
2022-09-26T04:14:26.606Z,19.70
2022-09-26T04:16:58.540Z,15.10
2022-09-26T04:19:34.032Z,12.40
2022-09-26T04:22:03.774Z,12.60
2022-09-26T04:24:36.472Z,16.50
2022-09-26T04:27:08.703Z,11.80
2022-09-26T04:29:37.024Z,10.30
2022-09-26T04:32:16.174Z,9.80
2022-09-26T04:35:13.809Z,9.60
2022-09-26T04:37:42.085Z,10.00
2022-09-26T04:40:11.527Z,10.70
2022-09-26T04:42:45.554Z,10.90
2022-09-26T04:46:17.202Z,11.20
2022-09-26T04:49:30.590Z,10.00
2022-09-26T04:52:25.647Z,10.80
2022-09-26T04:55:09.920Z,10.20
2022-09-26T05:00:52.618Z,9.60
2022-09-26T05:03:47.320Z,9.80
2022-09-26T05:06:20.666Z,11.20
2022-09-26T05:08:54.946Z,10.00
2022-09-26T05:11:53.639Z,9.50
2022-09-26T05:14:21.912Z,8.90
2022-09-26T05:16:51.395Z,11.60
2022-09-26T05:19:24.447Z,12.60
2022-09-26T05:22:22.427Z,13.90
2022-09-26T05:25:41.267Z,14.10
2022-09-26T05:28:11.702Z,14.70
2022-09-26T05:30:46.413Z,13.20
2022-09-26T05:33:42.872Z,13.60
2022-09-26T05:36:21.459Z,13.60
2022-09-26T05:39:01.993Z,17.60
2022-09-26T05:44:05.152Z,20.90
2022-09-26T05:46:37.445Z,18.30
2022-09-26T05:49:11.209Z,21.70
2022-09-26T05:51:41.493Z,30.00
2022-09-26T05:54:10.940Z,23.90
2022-09-26T05:56:39.458Z,23.60
2022-09-26T05:59:27.875Z,32.30
2022-09-26T06:02:31.659Z,17.10
2022-09-26T06:07:08.072Z,21.70
2022-09-26T06:09:40.974Z,22.90
2022-09-26T06:12:26.063Z,20.70
2022-09-26T06:14:55.809Z,22.20
2022-09-26T06:17:25.319Z,17.30
2022-09-26T06:19:55.114Z,16.40
2022-09-26T06:22:25.608Z,16.70
2022-09-26T06:24:54.578Z,18.10
2022-09-26T06:27:24.368Z,38.70
2022-09-26T06:29:58.640Z,32.30
2022-09-26T06:32:31.847Z,81.60
2022-09-26T06:35:18.101Z,44.90
2022-09-26T06:38:01.154Z,60.10
2022-09-26T06:40:57.294Z,13.00
2022-09-26T06:48:24.292Z,14.70
2022-09-26T07:05:47.289Z,119.30
2022-09-26T07:08:57.744Z,9.40
2022-09-26T07:11:56.615Z,8.60
2022-09-26T07:14:26.601Z,7.60
2022-09-26T07:17:04.996Z,9.00
2022-09-26T07:19:55.455Z,8.70
2022-09-26T07:22:46.176Z,8.90
2022-09-26T07:25:15.687Z,8.80
2022-09-26T07:27:52.072Z,8.40
2022-09-26T07:30:24.894Z,7.90
2022-09-26T07:33:07.158Z,8.00
2022-09-26T07:35:45.112Z,9.70
2022-09-26T07:38:15.336Z,14.00
2022-09-26T07:40:44.175Z,16.00
2022-09-26T07:43:20.224Z,16.10
2022-09-26T07:46:13.432Z,15.20
2022-09-26T07:49:07.880Z,12.90
2022-09-26T07:52:02.014Z,13.50
2022-09-26T07:55:02.880Z,29.60
2022-09-26T07:58:08.360Z,13.00
2022-09-26T08:01:03.142Z,38.30
2022-09-26T08:03:59.725Z,25.00
2022-09-26T08:07:00.719Z,18.60
2022-09-26T08:09:38.189Z,36.50
2022-09-26T08:12:38.695Z,33.30
2022-09-26T08:15:45.671Z,28.50
2022-09-26T08:18:36.876Z,18.90
2022-09-26T08:21:15.689Z,12.40
2022-09-26T08:24:02.505Z,9.90
2022-09-26T08:27:02.758Z,15.90
2022-09-26T08:29:42.629Z,36.50
2022-09-26T08:32:11.376Z,16.50
2022-09-26T08:34:41.409Z,13.00
2022-09-26T08:37:36.909Z,9.00
2022-09-26T08:40:33.974Z,8.40
2022-09-26T08:43:41.618Z,12.60
2022-09-26T08:46:43.974Z,8.90
2022-09-26T08:50:04.432Z,11.70
2022-09-26T08:52:57.003Z,6.90
2022-09-26T08:55:41.008Z,10.40
2022-09-26T08:58:25.337Z,13.50
2022-09-26T09:01:06.006Z,15.80
2022-09-26T09:04:02.145Z,39.30
2022-09-26T09:06:38.084Z,18.40
2022-09-26T09:09:08.178Z,83.90
2022-09-26T09:12:45.345Z,21.00
2022-09-26T09:25:01.461Z,35.30
2022-09-26T09:32:52.599Z,9.30
2022-09-26T09:43:19.758Z,7.40
2022-09-26T09:46:39.343Z,6.70
2022-09-26T09:49:30.249Z,7.90
2022-09-26T09:52:28.913Z,10.30
2022-09-26T09:55:41.784Z,10.60
2022-09-26T09:58:37.232Z,9.60
2022-09-26T10:01:39.487Z,21.00
2022-09-26T10:04:58.946Z,8.50
2022-09-26T10:07:32.593Z,11.50
2022-09-26T10:10:52.042Z,17.50
2022-09-26T10:13:45.663Z,22.50
2022-09-26T10:17:13.551Z,13.40
2022-09-26T10:20:12.928Z,34.00
2022-09-26T10:23:36.077Z,12.20
2022-09-26T10:26:14.390Z,11.10
2022-09-26T10:29:00.916Z,8.50
2022-09-26T10:31:42.321Z,8.20
2022-09-26T10:34:31.898Z,11.10
2022-09-26T10:37:35.367Z,8.20
2022-09-26T10:40:53.730Z,10.00
2022-09-26T10:43:31.329Z,9.90
2022-09-26T10:46:32.392Z,11.70
2022-09-26T10:49:31.818Z,9.20
2022-09-26T10:52:08.899Z,11.00
2022-09-26T10:54:43.195Z,13.60
2022-09-26T10:57:25.115Z,6.70
2022-09-26T10:59:57.506Z,7.20
2022-09-26T11:02:28.591Z,5.30
2022-09-26T11:05:22.436Z,8.60
2022-09-26T11:08:19.135Z,6.30
2022-09-26T11:11:14.146Z,10.80
2022-09-26T11:14:02.261Z,8.10
2022-09-26T11:16:49.274Z,6.00
2022-09-26T11:19:42.799Z,5.20
2022-09-26T11:22:34.434Z,4.50
2022-09-26T11:25:12.072Z,4.00
2022-09-26T11:27:46.872Z,4.70
2022-09-26T11:30:24.041Z,5.00
2022-09-26T11:33:00.514Z,35.60
2022-09-26T11:35:58.941Z,17.90
2022-09-26T11:38:47.445Z,10.10
2022-09-26T11:41:48.980Z,13.90
2022-09-26T11:44:32.480Z,3.00
2022-09-26T11:47:53.060Z,5.80
2022-09-26T11:50:48.169Z,6.10
2022-09-26T11:53:40.737Z,5.20
2022-09-26T11:56:44.614Z,3.30
2022-09-26T11:59:44.009Z,3.10
2022-09-26T12:02:41.017Z,2.50
2022-09-26T12:05:38.501Z,3.90
2022-09-26T12:08:36.545Z,4.30
2022-09-26T12:11:37.344Z,3.90
2022-09-26T12:14:24.135Z,4.20
2022-09-26T12:17:06.471Z,4.50
2022-09-26T12:19:42.298Z,3.30
2022-09-26T12:22:29.975Z,3.30
2022-09-26T12:24:58.112Z,3.70
2022-09-26T12:27:50.070Z,9.20
2022-09-26T12:30:32.509Z,4.40
2022-09-26T12:33:06.611Z,6.10
2022-09-26T12:35:37.353Z,5.10
2022-09-26T12:38:32.590Z,4.70
2022-09-26T12:41:23.303Z,5.00
2022-09-26T12:44:28.595Z,6.70
2022-09-26T12:47:24.792Z,12.90
2022-09-26T12:50:05.414Z,6.10
2022-09-26T12:52:44.355Z,13.50
2022-09-26T12:55:34.489Z,12.60
2022-09-26T12:58:25.105Z,8.20
2022-09-26T13:00:56.746Z,8.70
2022-09-26T13:03:36.947Z,8.20
2022-09-26T13:06:29.627Z,11.10
2022-09-26T13:09:16.183Z,21.00
2022-09-26T13:12:01.935Z,10.50
2022-09-26T13:14:46.861Z,19.00
2022-09-26T13:19:51.557Z,7.80
2022-09-26T13:22:46.017Z,5.00
2022-09-26T13:25:29.682Z,8.80
2022-09-26T13:28:10.210Z,9.10
2022-09-26T13:30:44.826Z,42.20
2022-09-26T13:33:22.486Z,7.80
2022-09-26T13:35:53.784Z,9.10
2022-09-26T13:38:38.160Z,6.20
2022-09-26T13:41:18.387Z,6.80
2022-09-26T13:43:47.570Z,6.10
2022-09-26T13:46:31.052Z,4.30
2022-09-26T13:49:02.274Z,7.40
2022-09-26T13:51:49.887Z,6.20
2022-09-26T13:54:44.750Z,5.30
2022-09-26T13:57:47.079Z,5.00
2022-09-26T14:00:24.289Z,5.60
2022-09-26T14:03:23.490Z,8.10
2022-09-26T14:06:06.852Z,8.60
2022-09-26T14:08:55.569Z,6.80
2022-09-26T14:11:30.716Z,6.70
2022-09-26T14:14:21.587Z,5.50
2022-09-26T14:17:01.746Z,4.80
2022-09-26T14:19:46.593Z,6.10
2022-09-26T14:24:53.688Z,9.70
2022-09-26T14:27:25.507Z,20.50
2022-09-26T14:30:13.898Z,18.10
2022-09-26T14:32:46.958Z,17.60
2022-09-26T14:35:21.361Z,10.70
2022-09-26T14:37:52.082Z,6.90
2022-09-26T14:40:30.298Z,7.20
2022-09-26T14:43:18.721Z,9.00
2022-09-26T14:46:15.178Z,13.20
2022-09-26T14:48:44.810Z,12.10
2022-09-26T14:51:15.888Z,9.70
2022-09-26T14:54:16.130Z,29.50
2022-09-26T14:56:51.398Z,20.10
2022-09-26T14:59:19.653Z,25.80
2022-09-26T15:01:48.202Z,10.20
2022-09-26T15:04:26.060Z,8.80
2022-09-26T15:07:03.045Z,8.60
2022-09-26T15:09:45.235Z,9.80
2022-09-26T15:12:18.489Z,13.60
2022-09-26T15:14:55.774Z,16.00
2022-09-26T15:17:31.803Z,30.10
2022-09-26T15:20:03.014Z,14.40
2022-09-26T15:22:31.594Z,11.40
2022-09-26T15:25:21.427Z,13.20
2022-09-26T15:27:55.779Z,13.80
2022-09-26T15:30:32.699Z,12.20
2022-09-26T15:33:06.111Z,8.80
2022-09-26T15:35:34.452Z,9.40
2022-09-26T15:38:09.699Z,9.60
2022-09-26T15:40:38.460Z,4.90
2022-09-26T15:43:08.135Z,4.80
2022-09-26T15:45:49.582Z,4.50
2022-09-26T15:48:34.475Z,5.20
2022-09-26T15:51:25.826Z,12.60
2022-09-26T15:53:58.125Z,13.40
2022-09-26T15:56:47.638Z,20.50
2022-09-26T15:59:21.353Z,15.90
2022-09-26T16:01:50.640Z,4.70
2022-09-26T16:04:27.494Z,6.90
2022-09-26T16:07:14.528Z,8.70
2022-09-26T16:09:47.149Z,7.50
2022-09-26T16:12:15.564Z,6.30
2022-09-26T16:14:54.958Z,7.00
2022-09-26T16:17:40.327Z,6.90
2022-09-26T16:20:17.529Z,6.40
2022-09-26T16:22:46.587Z,7.40
2022-09-26T16:25:20.852Z,8.40
2022-09-26T16:28:00.995Z,7.60
2022-09-26T16:30:32.225Z,14.00
2022-09-26T16:33:03.974Z,22.60
2022-09-26T16:35:35.533Z,18.00
2022-09-26T16:38:25.874Z,12.60
2022-09-26T16:40:57.844Z,9.90
2022-09-26T16:43:29.614Z,10.50
2022-09-26T16:46:18.004Z,17.70
2022-09-26T16:48:49.728Z,16.30
2022-09-26T16:51:19.606Z,17.30
2022-09-26T16:53:53.567Z,28.10
2022-09-26T16:56:24.514Z,18.80
2022-09-26T16:58:59.011Z,20.50
2022-09-26T17:04:19.015Z,9.80
2022-09-26T17:06:47.986Z,9.20
2022-09-26T17:09:30.708Z,9.00
2022-09-26T17:12:13.802Z,8.40
2022-09-26T17:14:43.625Z,11.30
2022-09-26T17:17:21.870Z,10.00
2022-09-26T17:19:56.767Z,9.00
2022-09-26T17:22:28.326Z,8.80
2022-09-26T17:24:58.204Z,9.00
2022-09-26T17:27:33.472Z,78.70
2022-09-26T17:30:05.155Z,52.10
2022-09-26T17:32:44.276Z,47.80
2022-09-26T17:35:19.520Z,54.20
2022-09-26T17:37:47.892Z,52.30
2022-09-26T17:40:24.377Z,55.30
2022-09-26T17:42:57.479Z,42.20
2022-09-26T17:45:40.337Z,37.80
2022-09-26T17:48:15.861Z,28.60
2022-09-26T17:50:44.167Z,31.00
2022-09-26T17:53:20.642Z,17.10
2022-09-26T17:55:49.384Z,17.40
2022-09-26T17:58:18.842Z,11.10
2022-09-26T18:00:50.269Z,19.30
2022-09-26T18:03:25.053Z,18.80
2022-09-26T18:05:54.212Z,33.20
2022-09-26T18:08:29.498Z,55.40
2022-09-26T18:11:02.168Z,55.80
2022-09-26T18:13:33.921Z,28.50
2022-09-26T18:16:03.386Z,36.60
2022-09-26T18:18:33.210Z,32.00
2022-09-26T18:21:05.317Z,17.00
2022-09-26T18:23:42.735Z,9.50
2022-09-26T18:26:29.317Z,17.20
2022-09-26T18:29:02.540Z,18.90
2022-09-26T18:31:33.285Z,18.00
2022-09-26T18:34:03.306Z,23.90
2022-09-26T18:36:33.405Z,29.20
2022-09-26T18:39:01.954Z,19.30
2022-09-26T18:41:30.518Z,14.20
2022-09-26T18:44:00.912Z,12.20
2022-09-26T18:46:30.243Z,13.90
2022-09-26T18:49:00.111Z,14.20
2022-09-26T18:51:28.997Z,15.20
2022-09-26T18:53:57.161Z,18.10
2022-09-26T18:56:43.868Z,20.10
2022-09-26T18:59:13.390Z,24.40
2022-09-26T19:01:43.010Z,31.60
2022-09-26T19:04:17.874Z,35.90
2022-09-26T19:06:49.736Z,40.10
2022-09-26T19:09:22.826Z,53.80
2022-09-26T19:11:51.074Z,49.90
2022-09-26T19:14:28.653Z,47.10
2022-09-26T19:16:57.802Z,43.60
2022-09-26T19:19:28.698Z,36.50
2022-09-26T19:21:59.852Z,35.90
2022-09-26T19:24:28.041Z,35.90
2022-09-26T19:27:03.630Z,37.80
2022-09-26T19:29:43.752Z,39.30
2022-09-26T19:32:24.310Z,42.80
2022-09-26T19:34:57.377Z,41.80
2022-09-26T19:37:25.710Z,40.00
2022-09-26T19:39:54.442Z,36.80
2022-09-26T19:42:22.641Z,33.30
2022-09-26T19:44:51.443Z,31.50
2022-09-26T19:47:23.164Z,30.70
2022-09-26T19:49:52.930Z,30.90
2022-09-26T19:52:22.279Z,33.10
2022-09-26T19:54:50.674Z,31.10
2022-09-26T19:57:22.155Z,30.80
2022-09-26T19:59:51.103Z,31.30
2022-09-26T20:02:24.559Z,32.50
2022-09-26T20:04:52.941Z,31.30
2022-09-26T20:07:21.158Z,28.90
2022-09-26T20:09:49.664Z,24.80
2022-09-26T20:12:17.989Z,23.60
2022-09-26T20:14:46.159Z,23.30
2022-09-26T20:17:21.183Z,21.60
2022-09-26T20:19:50.800Z,21.20
2022-09-26T20:22:22.932Z,19.70
2022-09-26T20:24:55.606Z,18.60
2022-09-26T20:27:28.236Z,17.30
2022-09-26T20:30:16.078Z,17.90
2022-09-26T20:32:44.417Z,14.10
2022-09-26T20:35:15.522Z,11.70
2022-09-26T20:37:44.958Z,7.80
2022-09-26T20:40:21.099Z,9.50
2022-09-26T20:42:57.182Z,12.10
2022-09-26T20:45:39.546Z,11.70
2022-09-26T20:48:22.944Z,15.90
2022-09-26T20:50:51.567Z,15.30
2022-09-26T20:53:21.933Z,15.40
2022-09-26T20:55:51.093Z,12.20
2022-09-26T20:58:19.610Z,12.60
2022-09-26T21:00:48.416Z,12.30
2022-09-26T21:03:20.010Z,11.60
2022-09-26T21:05:48.304Z,11.40
2022-09-26T21:08:22.280Z,11.80
2022-09-26T21:10:50.495Z,11.50
2022-09-26T21:13:18.624Z,11.30
2022-09-26T21:15:46.867Z,12.00
2022-09-26T21:18:28.377Z,12.20
2022-09-26T21:21:07.046Z,12.00
2022-09-26T21:23:54.443Z,10.80
2022-09-26T21:26:25.581Z,10.80
2022-09-26T21:28:55.756Z,11.10
2022-09-26T21:31:33.921Z,13.10
2022-09-26T21:34:03.564Z,9.50
2022-09-26T21:36:38.526Z,9.70
2022-09-26T21:39:06.938Z,8.90
2022-09-26T21:41:36.361Z,7.60
2022-09-26T21:44:09.077Z,6.10
2022-09-26T21:46:37.342Z,5.20
2022-09-26T21:49:05.685Z,3.60
2022-09-26T21:51:35.868Z,3.80
2022-09-26T21:54:09.773Z,4.00
2022-09-26T21:56:50.219Z,3.10
2022-09-26T21:59:21.596Z,2.80
2022-09-26T22:01:50.038Z,2.90
2022-09-26T22:04:20.926Z,2.10
2022-09-26T22:06:49.172Z,1.50
2022-09-26T22:09:17.422Z,1.30
2022-09-26T22:11:45.754Z,1.50
2022-09-26T22:14:14.088Z,1.30
2022-09-26T22:16:42.351Z,1.30
2022-09-26T22:19:10.765Z,1.00
2022-09-26T22:21:39.036Z,0.90
2022-09-26T22:24:07.255Z,1.20
2022-09-26T22:26:35.614Z,1.60
2022-09-26T22:29:04.349Z,1.70
2022-09-26T22:31:32.647Z,1.60
2022-09-26T22:34:00.857Z,1.30
2022-09-26T22:36:29.006Z,1.30
2022-09-26T22:38:57.238Z,1.50
2022-09-26T22:41:25.416Z,2.30
2022-09-26T22:43:53.662Z,3.30
2022-09-26T22:46:21.972Z,2.30
2022-09-26T22:48:50.654Z,2.80
2022-09-26T22:51:18.858Z,4.10
2022-09-26T22:53:47.165Z,4.60
2022-09-26T22:56:15.756Z,3.90
2022-09-26T22:58:47.148Z,2.50
2022-09-26T23:01:22.575Z,1.70
2022-09-26T23:03:54.910Z,1.30
2022-09-26T23:06:23.735Z,2.00
2022-09-26T23:08:52.708Z,2.10
2022-09-26T23:11:22.961Z,2.00
2022-09-26T23:13:52.712Z,2.10
2022-09-26T23:16:23.571Z,2.20
2022-09-26T23:18:52.338Z,3.50
2022-09-26T23:21:26.198Z,4.00
2022-09-26T23:23:56.460Z,3.00
2022-09-26T23:26:31.901Z,2.80
2022-09-26T23:29:00.496Z,3.50
2022-09-26T23:31:29.519Z,3.30
2022-09-26T23:33:58.088Z,4.60
2022-09-26T23:36:26.678Z,4.40
2022-09-26T23:38:57.492Z,3.10
2022-09-26T23:41:25.978Z,4.90
2022-09-26T23:43:54.139Z,4.40
2022-09-26T23:46:22.603Z,4.20
2022-09-26T23:48:50.986Z,3.80
2022-09-26T23:51:19.622Z,3.80
2022-09-26T23:53:48.744Z,3.80
2022-09-26T23:56:17.138Z,3.50
2022-09-26T23:58:45.870Z,2.70
